Time,TemperatureF,DewpointF,PressureIn,WindDirection,WindDirectionDegrees,WindSpeedMPH,WindSpeedGustMPH,Humidity,HourlyPrecipIn,Conditions,Clouds,dailyrainin,SoftwareType,DateUTC
2013-03-21 00:01:00,77.7,76.8,30.01,SW,225,0.0,0.7,97,0.00,,,0.00,pywws,2013-03-20 14:01:00,
2013-03-21 00:12:00,77.9,77.0,30.01,SW,225,0.0,0.7,97,0.00,,,0.00,pywws,2013-03-20 14:12:00,
2013-03-21 00:22:00,77.9,77.0,30.00,SW,225,0.0,0.0,97,0.00,,,0.00,pywws,2013-03-20 14:22:00,
2013-03-21 00:32:00,77.9,77.0,30.00,SW,225,0.0,0.0,97,0.00,,,0.00,pywws,2013-03-20 14:32:00,
2013-03-21 00:42:00,77.7,76.8,29.99,West,270,0.7,1.6,97,0.00,,,0.00,pywws,2013-03-20 14:42:00,
2013-03-21 00:52:00,77.4,76.7,29.99,SW,225,0.0,0.0,98,0.00,,,0.00,pywws,2013-03-20 14:52:00,
2013-03-21 01:01:00,77.2,76.6,29.98,SW,225,0.0,0.0,98,0.00,,,0.00,pywws,2013-03-20 15:01:00,
2013-03-21 01:12:00,77.0,76.7,29.98,South,180,0.0,0.0,99,0.00,,,0.00,pywws,2013-03-20 15:12:00,
2013-03-21 01:22:00,76.8,76.5,29.97,NE,45,2.2,3.8,99,0.00,,,0.00,pywws,2013-03-20 15:22:00,
2013-03-21 01:32:00,76.3,75.7,29.97,West,270,0.7,1.6,98,0.00,,,0.00,pywws,2013-03-20 15:32:00,
2013-03-21 01:42:00,75.6,75.3,29.96,SW,225,0.0,0.0,99,0.01,,,0.01,pywws,2013-03-20 15:42:00,
2013-03-21 01:52:00,75.4,75.1,29.95,SW,225,0.0,0.0,99,0.01,,,0.01,pywws,2013-03-20 15:52:00,
2013-03-21 02:01:00,75.4,75.1,29.94,SW,225,0.0,0.0,99,0.01,,,0.01,pywws,2013-03-20 16:01:00,
2013-03-21 02:12:00,75.2,74.9,29.95,NE,45,0.0,0.0,99,0.01,,,0.01,pywws,2013-03-20 16:12:00,
2013-03-21 02:22:00,75.0,74.7,29.96,NNE,22,0.7,2.2,99,0.01,,,0.01,pywws,2013-03-20 16:22:00,
2013-03-21 02:32:00,75.0,74.7,29.95,NE,45,1.6,3.1,99,0.01,,,0.01,pywws,2013-03-20 16:32:00,
2013-03-21 02:42:00,75.0,74.7,29.96,North,0,0.7,2.2,99,0.00,,,0.01,pywws,2013-03-20 16:42:00,
2013-03-21 02:52:00,75.0,74.7,29.96,SW,225,0.0,0.0,99,0.00,,,0.01,pywws,2013-03-20 16:52:00,
2013-03-21 03:01:00,74.8,74.5,29.95,SW,225,0.7,1.6,99,0.00,,,0.01,pywws,2013-03-20 17:01:00,
2013-03-21 03:12:00,75.0,74.7,29.95,West,270,0.0,0.0,99,0.00,,,0.01,pywws,2013-03-20 17:12:00,
2013-03-21 03:22:00,75.2,74.9,29.94,South,180,0.0,0.7,99,0.00,,,0.01,pywws,2013-03-20 17:22:00,
2013-03-21 03:32:00,75.2,74.9,29.94,NE,45,0.0,0.0,99,0.00,,,0.01,pywws,2013-03-20 17:32:00,
2013-03-21 03:42:00,75.2,74.9,29.94,SW,225,0.7,1.6,99,0.00,,,0.01,pywws,2013-03-20 17:42:00,
2013-03-21 03:52:00,75.2,74.9,29.95,NE,45,0.0,0.7,99,0.00,,,0.01,pywws,2013-03-20 17:52:00,
2013-03-21 04:01:00,75.2,74.9,29.94,NE,45,0.0,0.0,99,0.00,,,0.01,pywws,2013-03-20 18:01:00,
2013-03-21 04:12:00,75.0,74.7,29.94,West,270,0.0,0.7,99,0.00,,,0.01,pywws,2013-03-20 18:12:00,
2013-03-21 04:22:00,74.8,74.5,29.94,West,270,0.0,0.0,99,0.00,,,0.01,pywws,2013-03-20 18:22:00,
2013-03-21 04:32:00,74.8,74.5,29.94,South,180,0.0,0.0,99,0.00,,,0.01,pywws,2013-03-20 18:32:00,
2013-03-21 04:42:00,74.7,74.4,29.95,South,180,0.0,0.7,99,0.00,,,0.01,pywws,2013-03-20 18:42:00,
2013-03-21 04:52:00,74.3,74.0,29.96,South,180,0.0,0.0,99,0.00,,,0.01,pywws,2013-03-20 18:52:00,
2013-03-21 05:01:00,74.3,74.0,29.96,South,180,0.0,0.0,99,0.00,,,0.01,pywws,2013-03-20 19:01:00,
2013-03-21 05:11:00,74.3,74.0,29.96,SW,225,0.7,1.6,99,0.00,,,0.01,pywws,2013-03-20 19:11:00,
2013-03-21 05:22:00,74.1,73.8,29.96,West,270,0.0,0.0,99,0.00,,,0.01,pywws,2013-03-20 19:22:00,
2013-03-21 05:32:00,73.9,73.6,29.97,West,270,0.0,0.0,99,0.00,,,0.01,pywws,2013-03-20 19:32:00,
2013-03-21 05:42:00,73.9,73.6,29.97,West,270,0.0,0.7,99,0.00,,,0.01,pywws,2013-03-20 19:42:00,
2013-03-21 05:52:00,73.9,73.6,29.98,West,270,0.0,0.7,99,0.00,,,0.01,pywws,2013-03-20 19:52:00,
2013-03-21 06:01:00,74.1,73.8,29.98,West,270,0.0,0.7,99,0.00,,,0.01,pywws,2013-03-20 20:01:00,
2013-03-21 06:12:00,74.1,73.8,29.99,West,270,0.0,0.7,99,0.00,,,0.01,pywws,2013-03-20 20:12:00,
2013-03-21 06:22:00,74.3,74.0,29.99,West,270,0.0,0.0,99,0.00,,,0.01,pywws,2013-03-20 20:22:00,
2013-03-21 06:32:00,74.5,74.2,29.99,West,270,0.0,0.0,99,0.00,,,0.01,pywws,2013-03-20 20:32:00,
2013-03-21 06:42:00,74.7,74.4,30.00,West,270,0.0,0.7,99,0.00,,,0.01,pywws,2013-03-20 20:42:00,
2013-03-21 06:52:00,75.0,74.7,30.00,West,270,0.0,0.7,99,0.00,,,0.01,pywws,2013-03-20 20:52:00,
2013-03-21 07:01:00,75.2,74.9,30.01,South,180,0.0,0.0,99,0.00,,,0.01,pywws,2013-03-20 21:01:00,
2013-03-21 07:12:00,75.6,75.3,30.00,West,270,0.0,0.0,99,0.00,,,0.01,pywws,2013-03-20 21:12:00,
2013-03-21 07:22:00,76.6,76.3,30.01,NE,45,0.0,0.0,99,0.00,,,0.01,pywws,2013-03-20 21:22:00,
2013-03-21 07:32:00,77.2,76.9,30.01,NE,45,0.0,0.7,99,0.00,,,0.01,pywws,2013-03-20 21:32:00,
2013-03-21 07:42:00,77.7,77.4,30.01,East,90,0.0,0.7,99,0.00,,,0.01,pywws,2013-03-20 21:42:00,
2013-03-21 07:52:00,78.1,77.8,30.02,North,0,0.0,0.7,99,0.00,,,0.01,pywws,2013-03-20 21:52:00,
2013-03-21 08:01:00,79.2,78.2,30.02,NE,45,0.7,1.6,97,0.00,,,0.01,pywws,2013-03-20 22:01:00,
2013-03-21 08:12:00,80.2,78.3,30.03,NE,45,0.7,2.2,94,0.00,,,0.01,pywws,2013-03-20 22:12:00,
2013-03-21 08:22:00,80.6,78.1,30.03,NE,45,1.6,2.2,92,0.00,,,0.01,pywws,2013-03-20 22:22:00,
2013-03-21 08:32:00,80.2,78.0,30.03,NE,45,0.7,2.2,93,0.00,,,0.01,pywws,2013-03-20 22:32:00,
2013-03-21 08:42:00,81.5,78.6,30.04,East,90,1.6,2.2,91,0.00,,,0.01,pywws,2013-03-20 22:42:00,
2013-03-21 08:52:00,82.2,78.6,30.04,North,0,1.6,2.2,89,0.00,,,0.01,pywws,2013-03-20 22:52:00,
2013-03-21 09:01:00,82.8,79.2,30.04,NE,45,0.7,1.6,89,0.00,,,0.01,pywws,2013-03-20 23:01:00,
2013-03-21 09:07:00,82.9,79.7,30.05,North,0,0.0,0.7,90,0.00,,,0.01,pywws,2013-03-20 23:07:00,
2013-03-21 09:12:00,82.9,79.7,30.05,ESE,112,0.0,1.6,90,0.00,,,0.01,pywws,2013-03-20 23:12:00,
2013-03-21 09:22:00,82.9,79.4,30.05,East,90,0.7,1.6,89,0.00,,,0.01,pywws,2013-03-20 23:22:00,
2013-03-21 09:32:00,83.8,80.2,30.04,South,180,0.0,0.0,89,0.00,,,0.01,pywws,2013-03-20 23:32:00,
2013-03-21 09:42:00,84.4,80.4,30.04,SW,225,0.0,0.0,88,0.00,,,0.01,pywws,2013-03-20 23:42:00,
2013-03-21 09:52:00,85.8,80.8,30.04,SE,135,0.0,0.7,85,0.00,,,0.01,pywws,2013-03-20 23:52:00,
2013-03-21 10:01:00,85.3,80.2,30.04,NNE,22,0.7,1.6,85,0.00,,,0.01,pywws,2013-03-21 00:01:00,
2013-03-21 10:12:00,85.3,80.6,30.04,South,180,0.7,2.2,86,0.00,,,0.01,pywws,2013-03-21 00:12:00,
2013-03-21 10:22:00,86.2,81.1,30.04,South,180,0.0,0.7,85,0.00,,,0.01,pywws,2013-03-21 00:22:00,
2013-03-21 10:32:00,85.5,80.4,30.04,South,180,0.0,0.7,85,0.00,,,0.01,pywws,2013-03-21 00:32:00,
2013-03-21 10:42:00,85.6,81.3,30.04,SE,135,0.0,0.7,87,0.00,,,0.01,pywws,2013-03-21 00:42:00,
2013-03-21 10:52:00,87.3,79.9,30.04,SE,135,0.0,0.7,79,0.01,,,0.02,pywws,2013-03-21 00:52:00,
2013-03-21 11:01:00,87.3,79.9,30.04,West,270,0.0,0.0,79,0.01,,,0.02,pywws,2013-03-21 01:01:00,
2013-03-21 11:12:00,86.4,80.6,30.03,SE,135,0.0,0.7,83,0.01,,,0.02,pywws,2013-03-21 01:12:00,
2013-03-21 11:22:00,84.0,80.4,30.03,South,180,0.0,0.0,89,0.01,,,0.02,pywws,2013-03-21 01:22:00,
2013-03-21 11:32:00,83.7,79.7,30.03,North,0,0.0,0.7,88,0.01,,,0.02,pywws,2013-03-21 01:32:00,
2013-03-21 11:42:00,84.6,80.6,30.02,NNE,22,0.0,1.6,88,0.01,,,0.02,pywws,2013-03-21 01:42:00,